sensor_id;sensor_type;location;lat;lon;timestamp;temperature;humidity
67141;DHT22;54058;52.010;5.546;2024-01-10T00:01:15;-2.40;67.50
67141;DHT22;54058;52.010;5.546;2024-01-10T00:03:41;-2.50;67.30
67141;DHT22;54058;52.010;5.546;2024-01-10T00:06:07;-2.50;68.60
67141;DHT22;54058;52.010;5.546;2024-01-10T00:08:32;-2.60;69.00
67141;DHT22;54058;52.010;5.546;2024-01-10T00:10:58;-2.60;69.00
67141;DHT22;54058;52.010;5.546;2024-01-10T00:13:23;-2.60;69.80
67141;DHT22;54058;52.010;5.546;2024-01-10T00:15:49;-2.50;69.80
67141;DHT22;54058;52.010;5.546;2024-01-10T00:18:15;-2.50;69.40
67141;DHT22;54058;52.010;5.546;2024-01-10T00:20:40;-2.50;69.40
67141;DHT22;54058;52.010;5.546;2024-01-10T00:23:06;-2.50;69.00
67141;DHT22;54058;52.010;5.546;2024-01-10T00:25:32;-2.60;68.70
67141;DHT22;54058;52.010;5.546;2024-01-10T00:27:58;-2.70;69.20
67141;DHT22;54058;52.010;5.546;2024-01-10T00:30:25;-2.70;69.50
67141;DHT22;54058;52.010;5.546;2024-01-10T00:32:51;-2.60;68.60
67141;DHT22;54058;52.010;5.546;2024-01-10T00:35:17;-2.70;69.80
67141;DHT22;54058;52.010;5.546;2024-01-10T00:37:42;-2.70;68.70
67141;DHT22;54058;52.010;5.546;2024-01-10T00:40:09;-2.80;68.50
67141;DHT22;54058;52.010;5.546;2024-01-10T00:42:35;-2.90;68.10
67141;DHT22;54058;52.010;5.546;2024-01-10T00:45:00;-2.90;68.40
67141;DHT22;54058;52.010;5.546;2024-01-10T00:47:26;-2.90;69.00
67141;DHT22;54058;52.010;5.546;2024-01-10T00:49:51;-2.90;69.50
67141;DHT22;54058;52.010;5.546;2024-01-10T00:52:17;-3.00;68.60
67141;DHT22;54058;52.010;5.546;2024-01-10T00:54:43;-3.00;69.00
67141;DHT22;54058;52.010;5.546;2024-01-10T00:57:09;-3.10;68.60
67141;DHT22;54058;52.010;5.546;2024-01-10T00:59:35;-3.00;69.70
67141;DHT22;54058;52.010;5.546;2024-01-10T01:02:01;-3.10;68.80
67141;DHT22;54058;52.010;5.546;2024-01-10T01:04:26;-3.10;69.80
67141;DHT22;54058;52.010;5.546;2024-01-10T01:06:52;-3.20;69.60
67141;DHT22;54058;52.010;5.546;2024-01-10T01:09:18;-3.20;69.50
67141;DHT22;54058;52.010;5.546;2024-01-10T01:11:44;-3.20;69.00
67141;DHT22;54058;52.010;5.546;2024-01-10T01:14:11;-3.20;69.50
67141;DHT22;54058;52.010;5.546;2024-01-10T01:16:36;-3.20;70.50
67141;DHT22;54058;52.010;5.546;2024-01-10T01:19:02;-3.20;70.80
67141;DHT22;54058;52.010;5.546;2024-01-10T01:21:28;-3.10;70.80
67141;DHT22;54058;52.010;5.546;2024-01-10T01:23:54;-3.10;70.30
67141;DHT22;54058;52.010;5.546;2024-01-10T01:26:20;-3.10;69.30
67141;DHT22;54058;52.010;5.546;2024-01-10T01:28:45;-3.10;68.50
67141;DHT22;54058;52.010;5.546;2024-01-10T01:31:11;-3.20;69.00
67141;DHT22;54058;52.010;5.546;2024-01-10T01:33:37;-3.20;68.90
67141;DHT22;54058;52.010;5.546;2024-01-10T01:36:05;-3.20;69.60
67141;DHT22;54058;52.010;5.546;2024-01-10T01:38:31;-3.30;69.70
67141;DHT22;54058;52.010;5.546;2024-01-10T01:40:56;-3.30;69.40
67141;DHT22;54058;52.010;5.546;2024-01-10T01:43:25;-3.30;69.80
67141;DHT22;54058;52.010;5.546;2024-01-10T01:45:55;-3.30;69.90
67141;DHT22;54058;52.010;5.546;2024-01-10T01:48:23;-3.30;70.60
67141;DHT22;54058;52.010;5.546;2024-01-10T01:51:02;-3.20;70.80
67141;DHT22;54058;52.010;5.546;2024-01-10T01:53:30;-3.20;70.20
67141;DHT22;54058;52.010;5.546;2024-01-10T01:55:56;-3.20;70.80
67141;DHT22;54058;52.010;5.546;2024-01-10T01:58:22;-3.20;70.40
67141;DHT22;54058;52.010;5.546;2024-01-10T02:00:49;-3.20;70.30
67141;DHT22;54058;52.010;5.546;2024-01-10T02:03:15;-3.20;69.70
67141;DHT22;54058;52.010;5.546;2024-01-10T02:05:41;-3.30;70.50
67141;DHT22;54058;52.010;5.546;2024-01-10T02:08:07;-3.30;71.10
67141;DHT22;54058;52.010;5.546;2024-01-10T02:10:34;-3.30;71.00
67141;DHT22;54058;52.010;5.546;2024-01-10T02:13:00;-3.30;71.30
67141;DHT22;54058;52.010;5.546;2024-01-10T02:15:26;-3.30;70.70
67141;DHT22;54058;52.010;5.546;2024-01-10T02:17:52;-3.30;71.30
67141;DHT22;54058;52.010;5.546;2024-01-10T02:20:18;-3.40;71.10
67141;DHT22;54058;52.010;5.546;2024-01-10T02:22:44;-3.30;71.80
67141;DHT22;54058;52.010;5.546;2024-01-10T02:25:13;-3.30;70.80
67141;DHT22;54058;52.010;5.546;2024-01-10T02:27:40;-3.40;71.70
67141;DHT22;54058;52.010;5.546;2024-01-10T02:30:07;-3.40;71.70
67141;DHT22;54058;52.010;5.546;2024-01-10T02:32:33;-3.40;71.40
67141;DHT22;54058;52.010;5.546;2024-01-10T02:34:59;-3.40;71.70
67141;DHT22;54058;52.010;5.546;2024-01-10T02:37:24;-3.40;71.70
67141;DHT22;54058;52.010;5.546;2024-01-10T02:39:50;-3.40;71.90
67141;DHT22;54058;52.010;5.546;2024-01-10T02:42:16;-3.40;71.10
67141;DHT22;54058;52.010;5.546;2024-01-10T02:44:42;-3.40;71.90
67141;DHT22;54058;52.010;5.546;2024-01-10T02:47:09;-3.40;72.10
67141;DHT22;54058;52.010;5.546;2024-01-10T02:49:34;-3.40;72.60
67141;DHT22;54058;52.010;5.546;2024-01-10T02:52:00;-3.30;72.70
67141;DHT22;54058;52.010;5.546;2024-01-10T02:54:26;-3.30;72.80
67141;DHT22;54058;52.010;5.546;2024-01-10T02:56:51;-3.30;73.10
67141;DHT22;54058;52.010;5.546;2024-01-10T02:59:17;-3.30;73.00
67141;DHT22;54058;52.010;5.546;2024-01-10T03:01:43;-3.30;73.00
67141;DHT22;54058;52.010;5.546;2024-01-10T03:04:09;-3.10;73.60
67141;DHT22;54058;52.010;5.546;2024-01-10T03:06:35;-3.00;73.60
67141;DHT22;54058;52.010;5.546;2024-01-10T03:09:00;-3.00;73.00
67141;DHT22;54058;52.010;5.546;2024-01-10T03:11:26;-3.00;73.40
67141;DHT22;54058;52.010;5.546;2024-01-10T03:14:01;-2.90;73.60
67141;DHT22;54058;52.010;5.546;2024-01-10T03:16:27;-2.80;74.10
67141;DHT22;54058;52.010;5.546;2024-01-10T03:18:53;-2.60;74.30
67141;DHT22;54058;52.010;5.546;2024-01-10T03:21:19;-2.40;74.10
67141;DHT22;54058;52.010;5.546;2024-01-10T03:23:50;-2.40;73.20
67141;DHT22;54058;52.010;5.546;2024-01-10T03:26:15;-2.50;73.50
67141;DHT22;54058;52.010;5.546;2024-01-10T03:28:41;-2.40;73.60
67141;DHT22;54058;52.010;5.546;2024-01-10T03:31:07;-2.40;73.80
67141;DHT22;54058;52.010;5.546;2024-01-10T03:33:32;-2.40;73.90
67141;DHT22;54058;52.010;5.546;2024-01-10T03:35:58;-2.30;74.20
67141;DHT22;54058;52.010;5.546;2024-01-10T03:38:24;-2.30;74.10
67141;DHT22;54058;52.010;5.546;2024-01-10T03:40:49;-2.30;73.80
67141;DHT22;54058;52.010;5.546;2024-01-10T03:43:15;-2.40;73.70
67141;DHT22;54058;52.010;5.546;2024-01-10T03:45:42;-2.50;73.90
67141;DHT22;54058;52.010;5.546;2024-01-10T03:48:07;-2.50;74.10
67141;DHT22;54058;52.010;5.546;2024-01-10T03:50:33;-2.50;73.60
67141;DHT22;54058;52.010;5.546;2024-01-10T03:52:59;-2.70;74.10
67141;DHT22;54058;52.010;5.546;2024-01-10T03:55:24;-2.70;74.00
67141;DHT22;54058;52.010;5.546;2024-01-10T03:57:50;-2.60;74.70
67141;DHT22;54058;52.010;5.546;2024-01-10T04:00:16;-2.50;74.90
67141;DHT22;54058;52.010;5.546;2024-01-10T04:02:42;-2.50;73.60
67141;DHT22;54058;52.010;5.546;2024-01-10T04:05:08;-2.60;73.90
67141;DHT22;54058;52.010;5.546;2024-01-10T04:07:35;-2.60;74.20
67141;DHT22;54058;52.010;5.546;2024-01-10T04:10:02;-2.50;74.40
67141;DHT22;54058;52.010;5.546;2024-01-10T04:12:28;-2.50;74.70
67141;DHT22;54058;52.010;5.546;2024-01-10T04:14:53;-2.70;73.20
67141;DHT22;54058;52.010;5.546;2024-01-10T04:17:19;-2.80;74.00
67141;DHT22;54058;52.010;5.546;2024-01-10T04:19:45;-2.70;74.70
67141;DHT22;54058;52.010;5.546;2024-01-10T04:22:10;-2.80;74.30
67141;DHT22;54058;52.010;5.546;2024-01-10T04:24:36;-2.80;74.80
67141;DHT22;54058;52.010;5.546;2024-01-10T04:27:02;-2.70;75.30
67141;DHT22;54058;52.010;5.546;2024-01-10T04:29:27;-2.70;74.60
67141;DHT22;54058;52.010;5.546;2024-01-10T04:31:53;-2.80;74.20
67141;DHT22;54058;52.010;5.546;2024-01-10T04:34:18;-2.80;74.60
67141;DHT22;54058;52.010;5.546;2024-01-10T04:36:44;-2.80;74.70
67141;DHT22;54058;52.010;5.546;2024-01-10T04:39:10;-2.90;74.50
67141;DHT22;54058;52.010;5.546;2024-01-10T04:41:36;-2.90;74.30
67141;DHT22;54058;52.010;5.546;2024-01-10T04:44:01;-3.00;74.10
67141;DHT22;54058;52.010;5.546;2024-01-10T04:46:27;-3.00;74.60
67141;DHT22;54058;52.010;5.546;2024-01-10T04:48:52;-3.00;74.70
67141;DHT22;54058;52.010;5.546;2024-01-10T04:51:18;-3.10;74.40
67141;DHT22;54058;52.010;5.546;2024-01-10T04:53:44;-3.10;74.60
67141;DHT22;54058;52.010;5.546;2024-01-10T04:56:09;-3.20;73.70
67141;DHT22;54058;52.010;5.546;2024-01-10T04:58:35;-3.30;73.50
67141;DHT22;54058;52.010;5.546;2024-01-10T05:01:02;-3.30;74.50
67141;DHT22;54058;52.010;5.546;2024-01-10T05:03:27;-3.40;73.70
67141;DHT22;54058;52.010;5.546;2024-01-10T05:05:53;-3.40;73.90
67141;DHT22;54058;52.010;5.546;2024-01-10T05:08:19;-3.50;74.30
67141;DHT22;54058;52.010;5.546;2024-01-10T05:10:46;-3.50;73.90
67141;DHT22;54058;52.010;5.546;2024-01-10T05:13:12;-3.60;73.40
67141;DHT22;54058;52.010;5.546;2024-01-10T05:15:38;-3.60;74.40
67141;DHT22;54058;52.010;5.546;2024-01-10T05:18:04;-3.60;73.90
67141;DHT22;54058;52.010;5.546;2024-01-10T05:20:29;-3.50;74.60
67141;DHT22;54058;52.010;5.546;2024-01-10T05:22:55;-3.50;74.30
67141;DHT22;54058;52.010;5.546;2024-01-10T05:25:24;-3.60;74.70
67141;DHT22;54058;52.010;5.546;2024-01-10T05:27:50;-3.70;73.30
67141;DHT22;54058;52.010;5.546;2024-01-10T05:30:15;-3.70;73.30
67141;DHT22;54058;52.010;5.546;2024-01-10T05:32:43;-3.70;73.50
67141;DHT22;54058;52.010;5.546;2024-01-10T05:35:08;-3.70;72.80
67141;DHT22;54058;52.010;5.546;2024-01-10T05:37:36;-3.80;73.30
67141;DHT22;54058;52.010;5.546;2024-01-10T05:40:02;-3.80;72.70
67141;DHT22;54058;52.010;5.546;2024-01-10T05:42:27;-3.80;74.00
67141;DHT22;54058;52.010;5.546;2024-01-10T05:44:53;-3.70;74.30
67141;DHT22;54058;52.010;5.546;2024-01-10T05:47:19;-3.70;72.40
67141;DHT22;54058;52.010;5.546;2024-01-10T05:49:44;-3.70;73.30
67141;DHT22;54058;52.010;5.546;2024-01-10T05:52:10;-3.70;74.00
67141;DHT22;54058;52.010;5.546;2024-01-10T05:54:35;-3.70;73.80
67141;DHT22;54058;52.010;5.546;2024-01-10T05:57:01;-3.70;73.70
67141;DHT22;54058;52.010;5.546;2024-01-10T05:59:27;-3.70;73.80
67141;DHT22;54058;52.010;5.546;2024-01-10T06:01:53;-3.70;73.90
67141;DHT22;54058;52.010;5.546;2024-01-10T06:04:19;-3.70;74.20
67141;DHT22;54058;52.010;5.546;2024-01-10T06:06:46;-3.70;74.10
67141;DHT22;54058;52.010;5.546;2024-01-10T06:09:11;-3.60;74.10
67141;DHT22;54058;52.010;5.546;2024-01-10T06:11:41;-3.70;73.40
67141;DHT22;54058;52.010;5.546;2024-01-10T06:14:07;-3.70;74.00
67141;DHT22;54058;52.010;5.546;2024-01-10T06:16:33;-3.70;74.40
67141;DHT22;54058;52.010;5.546;2024-01-10T06:18:58;-3.80;74.20
67141;DHT22;54058;52.010;5.546;2024-01-10T06:21:24;-3.80;74.30
67141;DHT22;54058;52.010;5.546;2024-01-10T06:23:50;-3.80;74.10
67141;DHT22;54058;52.010;5.546;2024-01-10T06:26:16;-3.80;74.10
67141;DHT22;54058;52.010;5.546;2024-01-10T06:28:42;-3.80;74.30
67141;DHT22;54058;52.010;5.546;2024-01-10T06:31:08;-3.80;74.00
67141;DHT22;54058;52.010;5.546;2024-01-10T06:33:33;-3.80;74.00
67141;DHT22;54058;52.010;5.546;2024-01-10T06:35:59;-3.80;73.90
67141;DHT22;54058;52.010;5.546;2024-01-10T06:38:25;-3.80;74.00
67141;DHT22;54058;52.010;5.546;2024-01-10T06:40:51;-3.80;74.10
67141;DHT22;54058;52.010;5.546;2024-01-10T06:43:16;-3.80;73.60
67141;DHT22;54058;52.010;5.546;2024-01-10T06:45:42;-3.80;73.20
67141;DHT22;54058;52.010;5.546;2024-01-10T06:48:08;-3.80;74.00
67141;DHT22;54058;52.010;5.546;2024-01-10T06:50:34;-3.80;73.40
67141;DHT22;54058;52.010;5.546;2024-01-10T06:53:00;-3.80;73.90
67141;DHT22;54058;52.010;5.546;2024-01-10T06:55:27;-3.80;73.60
67141;DHT22;54058;52.010;5.546;2024-01-10T06:57:54;-3.80;74.20
67141;DHT22;54058;52.010;5.546;2024-01-10T07:00:21;-3.80;73.00
67141;DHT22;54058;52.010;5.546;2024-01-10T07:02:47;-3.80;73.70
67141;DHT22;54058;52.010;5.546;2024-01-10T07:05:14;-3.80;74.10
67141;DHT22;54058;52.010;5.546;2024-01-10T07:07:40;-3.80;73.70
67141;DHT22;54058;52.010;5.546;2024-01-10T07:10:06;-3.80;74.20
67141;DHT22;54058;52.010;5.546;2024-01-10T07:12:35;-3.80;72.90
67141;DHT22;54058;52.010;5.546;2024-01-10T07:15:01;-3.90;72.70
67141;DHT22;54058;52.010;5.546;2024-01-10T07:17:28;-3.90;73.50
67141;DHT22;54058;52.010;5.546;2024-01-10T07:19:54;-3.90;73.40
67141;DHT22;54058;52.010;5.546;2024-01-10T07:22:22;-3.90;74.00
67141;DHT22;54058;52.010;5.546;2024-01-10T07:24:48;-3.90;74.10
67141;DHT22;54058;52.010;5.546;2024-01-10T07:27:13;-3.90;73.70
67141;DHT22;54058;52.010;5.546;2024-01-10T07:29:40;-3.90;74.10
67141;DHT22;54058;52.010;5.546;2024-01-10T07:32:06;-3.90;73.70
67141;DHT22;54058;52.010;5.546;2024-01-10T07:34:37;-3.90;73.60
67141;DHT22;54058;52.010;5.546;2024-01-10T07:37:03;-3.90;74.10
67141;DHT22;54058;52.010;5.546;2024-01-10T07:39:28;-3.80;74.40
67141;DHT22;54058;52.010;5.546;2024-01-10T07:41:54;-3.80;74.40
67141;DHT22;54058;52.010;5.546;2024-01-10T07:44:20;-3.80;73.10
67141;DHT22;54058;52.010;5.546;2024-01-10T07:46:45;-3.80;73.10
67141;DHT22;54058;52.010;5.546;2024-01-10T07:49:11;-3.80;73.40
67141;DHT22;54058;52.010;5.546;2024-01-10T07:51:37;-3.80;73.50
67141;DHT22;54058;52.010;5.546;2024-01-10T07:54:02;-3.80;73.20
67141;DHT22;54058;52.010;5.546;2024-01-10T07:56:28;-3.80;73.60
67141;DHT22;54058;52.010;5.546;2024-01-10T07:58:55;-3.80;73.60
67141;DHT22;54058;52.010;5.546;2024-01-10T08:01:21;-3.80;73.50
67141;DHT22;54058;52.010;5.546;2024-01-10T08:03:47;-3.80;73.70
67141;DHT22;54058;52.010;5.546;2024-01-10T08:06:12;-3.80;74.20
67141;DHT22;54058;52.010;5.546;2024-01-10T08:08:39;-3.80;73.80
67141;DHT22;54058;52.010;5.546;2024-01-10T08:11:04;-3.80;73.60
67141;DHT22;54058;52.010;5.546;2024-01-10T08:13:31;-3.80;73.70
67141;DHT22;54058;52.010;5.546;2024-01-10T08:15:56;-3.70;73.20
67141;DHT22;54058;52.010;5.546;2024-01-10T08:18:23;-3.70;73.50
67141;DHT22;54058;52.010;5.546;2024-01-10T08:20:49;-3.70;73.10
67141;DHT22;54058;52.010;5.546;2024-01-10T08:23:14;-3.70;73.00
67141;DHT22;54058;52.010;5.546;2024-01-10T08:25:40;-3.60;73.00
67141;DHT22;54058;52.010;5.546;2024-01-10T08:28:06;-3.60;72.70
67141;DHT22;54058;52.010;5.546;2024-01-10T08:30:32;-3.50;72.90
67141;DHT22;54058;52.010;5.546;2024-01-10T08:32:58;-3.60;71.90
67141;DHT22;54058;52.010;5.546;2024-01-10T08:35:24;-3.60;71.00
67141;DHT22;54058;52.010;5.546;2024-01-10T08:37:50;-3.50;72.10
67141;DHT22;54058;52.010;5.546;2024-01-10T08:40:16;-3.50;72.40
67141;DHT22;54058;52.010;5.546;2024-01-10T08:42:42;-3.40;71.80
67141;DHT22;54058;52.010;5.546;2024-01-10T08:45:09;-3.40;72.40
67141;DHT22;54058;52.010;5.546;2024-01-10T08:47:35;-3.40;72.30
67141;DHT22;54058;52.010;5.546;2024-01-10T08:50:03;-3.30;72.80
67141;DHT22;54058;52.010;5.546;2024-01-10T08:52:31;-3.30;71.90
67141;DHT22;54058;52.010;5.546;2024-01-10T08:54:57;-3.20;71.30
67141;DHT22;54058;52.010;5.546;2024-01-10T08:57:23;-3.20;72.60
67141;DHT22;54058;52.010;5.546;2024-01-10T08:59:48;-3.10;73.10
67141;DHT22;54058;52.010;5.546;2024-01-10T09:02:14;-3.00;71.40
67141;DHT22;54058;52.010;5.546;2024-01-10T09:04:40;-3.00;70.40
67141;DHT22;54058;52.010;5.546;2024-01-10T09:07:07;-2.90;72.00
67141;DHT22;54058;52.010;5.546;2024-01-10T09:09:34;-2.80;71.70
67141;DHT22;54058;52.010;5.546;2024-01-10T09:12:00;-2.80;71.20
67141;DHT22;54058;52.010;5.546;2024-01-10T09:14:25;-2.70;72.20
67141;DHT22;54058;52.010;5.546;2024-01-10T09:16:51;-2.70;71.70
67141;DHT22;54058;52.010;5.546;2024-01-10T09:19:17;-2.60;71.60
67141;DHT22;54058;52.010;5.546;2024-01-10T09:21:43;-2.50;71.30
67141;DHT22;54058;52.010;5.546;2024-01-10T09:24:08;-2.50;71.10
67141;DHT22;54058;52.010;5.546;2024-01-10T09:26:36;-2.40;70.90
67141;DHT22;54058;52.010;5.546;2024-01-10T09:29:02;-2.30;72.20
67141;DHT22;54058;52.010;5.546;2024-01-10T09:31:28;-2.30;68.10
67141;DHT22;54058;52.010;5.546;2024-01-10T09:33:53;-2.30;68.80
67141;DHT22;54058;52.010;5.546;2024-01-10T09:36:19;-2.20;69.00
67141;DHT22;54058;52.010;5.546;2024-01-10T09:38:45;-2.20;70.40
67141;DHT22;54058;52.010;5.546;2024-01-10T09:41:11;-2.20;69.50
67141;DHT22;54058;52.010;5.546;2024-01-10T09:43:38;-2.10;69.40
67141;DHT22;54058;52.010;5.546;2024-01-10T09:46:06;-2.00;69.60
67141;DHT22;54058;52.010;5.546;2024-01-10T09:48:32;-1.90;70.50
67141;DHT22;54058;52.010;5.546;2024-01-10T09:50:59;-1.90;69.80
67141;DHT22;54058;52.010;5.546;2024-01-10T09:53:27;-1.70;68.70
67141;DHT22;54058;52.010;5.546;2024-01-10T09:55:57;-1.70;68.30
67141;DHT22;54058;52.010;5.546;2024-01-10T09:58:25;-1.60;69.70
67141;DHT22;54058;52.010;5.546;2024-01-10T10:00:51;-1.50;69.50
67141;DHT22;54058;52.010;5.546;2024-01-10T10:03:17;-1.40;70.90
67141;DHT22;54058;52.010;5.546;2024-01-10T10:05:43;-1.30;70.70
67141;DHT22;54058;52.010;5.546;2024-01-10T10:08:13;-1.20;70.10
67141;DHT22;54058;52.010;5.546;2024-01-10T10:10:49;-1.20;68.00
67141;DHT22;54058;52.010;5.546;2024-01-10T10:13:28;-1.20;67.60
67141;DHT22;54058;52.010;5.546;2024-01-10T10:16:04;-1.10;70.00
67141;DHT22;54058;52.010;5.546;2024-01-10T10:18:31;-1.00;67.90
67141;DHT22;54058;52.010;5.546;2024-01-10T10:21:10;-1.00;66.90
67141;DHT22;54058;52.010;5.546;2024-01-10T10:23:41;-1.00;66.70
67141;DHT22;54058;52.010;5.546;2024-01-10T10:26:14;-0.90;67.30
67141;DHT22;54058;52.010;5.546;2024-01-10T10:28:48;-0.90;68.20
67141;DHT22;54058;52.010;5.546;2024-01-10T10:31:16;-0.80;65.90
67141;DHT22;54058;52.010;5.546;2024-01-10T10:33:42;-0.80;66.50
67141;DHT22;54058;52.010;5.546;2024-01-10T10:36:09;-0.70;67.00
67141;DHT22;54058;52.010;5.546;2024-01-10T10:38:35;-0.70;65.40
67141;DHT22;54058;52.010;5.546;2024-01-10T10:41:04;-0.70;61.80
67141;DHT22;54058;52.010;5.546;2024-01-10T10:43:33;-0.60;58.30
67141;DHT22;54058;52.010;5.546;2024-01-10T10:46:00;-0.60;65.80
67141;DHT22;54058;52.010;5.546;2024-01-10T10:48:29;-0.50;64.50
67141;DHT22;54058;52.010;5.546;2024-01-10T10:51:11;-0.50;64.70
67141;DHT22;54058;52.010;5.546;2024-01-10T10:53:42;-0.40;63.90
67141;DHT22;54058;52.010;5.546;2024-01-10T10:56:11;-0.40;63.70
67141;DHT22;54058;52.010;5.546;2024-01-10T10:58:44;-0.30;63.90
67141;DHT22;54058;52.010;5.546;2024-01-10T11:01:13;-0.20;65.10
67141;DHT22;54058;52.010;5.546;2024-01-10T11:03:40;-0.10;65.10
67141;DHT22;54058;52.010;5.546;2024-01-10T11:06:08;-0.10;60.40
67141;DHT22;54058;52.010;5.546;2024-01-10T11:09:00;-0.10;58.90
67141;DHT22;54058;52.010;5.546;2024-01-10T11:20:14;0.10;64.10
67141;DHT22;54058;52.010;5.546;2024-01-10T11:25:29;0.20;63.60
67141;DHT22;54058;52.010;5.546;2024-01-10T11:27:56;0.30;64.50
67141;DHT22;54058;52.010;5.546;2024-01-10T11:30:34;0.30;64.90
67141;DHT22;54058;52.010;5.546;2024-01-10T11:33:33;0.40;64.60
67141;DHT22;54058;52.010;5.546;2024-01-10T11:36:18;0.40;62.80
67141;DHT22;54058;52.010;5.546;2024-01-10T11:41:28;0.60;65.70
67141;DHT22;54058;52.010;5.546;2024-01-10T11:46:39;0.80;57.50
67141;DHT22;54058;52.010;5.546;2024-01-10T11:49:12;0.80;62.80
67141;DHT22;54058;52.010;5.546;2024-01-10T11:51:46;0.90;63.90
67141;DHT22;54058;52.010;5.546;2024-01-10T11:54:12;1.00;62.30
67141;DHT22;54058;52.010;5.546;2024-01-10T11:56:39;1.00;63.00
67141;DHT22;54058;52.010;5.546;2024-01-10T11:59:09;1.10;60.30
67141;DHT22;54058;52.010;5.546;2024-01-10T12:01:39;1.10;61.60
67141;DHT22;54058;52.010;5.546;2024-01-10T12:04:05;1.10;60.00
67141;DHT22;54058;52.010;5.546;2024-01-10T12:06:32;1.20;62.40
67141;DHT22;54058;52.010;5.546;2024-01-10T12:08:58;1.20;57.70
67141;DHT22;54058;52.010;5.546;2024-01-10T12:11:27;1.20;61.40
67141;DHT22;54058;52.010;5.546;2024-01-10T12:13:53;1.30;62.20
67141;DHT22;54058;52.010;5.546;2024-01-10T12:16:18;1.40;62.00
67141;DHT22;54058;52.010;5.546;2024-01-10T12:18:44;1.40;61.60
67141;DHT22;54058;52.010;5.546;2024-01-10T12:21:10;1.40;62.60
67141;DHT22;54058;52.010;5.546;2024-01-10T12:23:37;1.50;64.00
67141;DHT22;54058;52.010;5.546;2024-01-10T12:26:07;1.60;63.80
67141;DHT22;54058;52.010;5.546;2024-01-10T12:28:35;1.60;55.60
67141;DHT22;54058;52.010;5.546;2024-01-10T12:31:01;1.70;61.40
67141;DHT22;54058;52.010;5.546;2024-01-10T12:33:27;1.60;61.10
67141;DHT22;54058;52.010;5.546;2024-01-10T12:36:22;1.70;63.70
67141;DHT22;54058;52.010;5.546;2024-01-10T12:38:48;1.70;56.70
67141;DHT22;54058;52.010;5.546;2024-01-10T12:41:18;1.70;61.70
67141;DHT22;54058;52.010;5.546;2024-01-10T12:43:54;1.70;62.40
67141;DHT22;54058;52.010;5.546;2024-01-10T12:46:23;1.70;61.20
67141;DHT22;54058;52.010;5.546;2024-01-10T12:49:06;1.70;60.40
67141;DHT22;54058;52.010;5.546;2024-01-10T12:51:33;1.70;62.50
67141;DHT22;54058;52.010;5.546;2024-01-10T12:53:59;1.70;64.00
67141;DHT22;54058;52.010;5.546;2024-01-10T12:56:26;1.70;60.70
67141;DHT22;54058;52.010;5.546;2024-01-10T12:58:53;1.70;62.30
67141;DHT22;54058;52.010;5.546;2024-01-10T13:01:21;1.70;63.20
67141;DHT22;54058;52.010;5.546;2024-01-10T13:03:47;1.70;62.50
67141;DHT22;54058;52.010;5.546;2024-01-10T13:06:14;1.80;60.50
67141;DHT22;54058;52.010;5.546;2024-01-10T13:08:41;1.80;60.40
67141;DHT22;54058;52.010;5.546;2024-01-10T13:11:07;1.80;62.10
67141;DHT22;54058;52.010;5.546;2024-01-10T13:13:38;1.80;61.60
67141;DHT22;54058;52.010;5.546;2024-01-10T13:16:04;1.80;61.10
67141;DHT22;54058;52.010;5.546;2024-01-10T13:18:30;1.80;62.60
67141;DHT22;54058;52.010;5.546;2024-01-10T13:20:56;1.80;62.90
67141;DHT22;54058;52.010;5.546;2024-01-10T13:23:22;1.80;62.30
67141;DHT22;54058;52.010;5.546;2024-01-10T13:25:49;1.80;62.50
67141;DHT22;54058;52.010;5.546;2024-01-10T13:28:14;1.80;58.80
67141;DHT22;54058;52.010;5.546;2024-01-10T13:30:41;1.70;61.10
67141;DHT22;54058;52.010;5.546;2024-01-10T13:33:08;1.70;59.60
67141;DHT22;54058;52.010;5.546;2024-01-10T13:35:37;1.70;60.10
67141;DHT22;54058;52.010;5.546;2024-01-10T13:38:04;1.70;60.30
67141;DHT22;54058;52.010;5.546;2024-01-10T13:40:31;1.70;62.20
67141;DHT22;54058;52.010;5.546;2024-01-10T13:42:57;1.70;64.20
67141;DHT22;54058;52.010;5.546;2024-01-10T13:45:22;1.70;61.30
67141;DHT22;54058;52.010;5.546;2024-01-10T13:47:48;1.70;62.00
67141;DHT22;54058;52.010;5.546;2024-01-10T13:50:17;1.70;62.10
67141;DHT22;54058;52.010;5.546;2024-01-10T13:52:42;1.70;61.10
67141;DHT22;54058;52.010;5.546;2024-01-10T13:55:09;1.70;61.10
67141;DHT22;54058;52.010;5.546;2024-01-10T13:57:35;1.70;62.70
67141;DHT22;54058;52.010;5.546;2024-01-10T14:00:02;1.70;62.50
67141;DHT22;54058;52.010;5.546;2024-01-10T14:02:29;1.80;63.50
67141;DHT22;54058;52.010;5.546;2024-01-10T14:04:54;1.80;63.80
67141;DHT22;54058;52.010;5.546;2024-01-10T14:07:22;1.80;61.80
67141;DHT22;54058;52.010;5.546;2024-01-10T14:09:48;1.70;62.90
67141;DHT22;54058;52.010;5.546;2024-01-10T14:12:13;1.80;64.30
67141;DHT22;54058;52.010;5.546;2024-01-10T14:14:39;1.70;62.30
67141;DHT22;54058;52.010;5.546;2024-01-10T14:17:05;1.70;63.10
67141;DHT22;54058;52.010;5.546;2024-01-10T14:19:31;1.70;62.90
67141;DHT22;54058;52.010;5.546;2024-01-10T14:21:57;1.60;61.60
67141;DHT22;54058;52.010;5.546;2024-01-10T14:24:23;1.60;61.60
67141;DHT22;54058;52.010;5.546;2024-01-10T14:26:50;1.60;61.40
67141;DHT22;54058;52.010;5.546;2024-01-10T14:29:15;1.60;61.50
67141;DHT22;54058;52.010;5.546;2024-01-10T14:31:41;1.60;63.00
67141;DHT22;54058;52.010;5.546;2024-01-10T14:34:07;1.50;62.40
67141;DHT22;54058;52.010;5.546;2024-01-10T14:36:32;1.50;64.10
67141;DHT22;54058;52.010;5.546;2024-01-10T14:38:59;1.50;63.00
67141;DHT22;54058;52.010;5.546;2024-01-10T14:41:25;1.50;61.50
67141;DHT22;54058;52.010;5.546;2024-01-10T14:43:51;1.40;61.20
67141;DHT22;54058;52.010;5.546;2024-01-10T14:46:17;1.40;62.20
67141;DHT22;54058;52.010;5.546;2024-01-10T14:48:42;1.30;62.90
67141;DHT22;54058;52.010;5.546;2024-01-10T14:51:08;1.30;64.30
67141;DHT22;54058;52.010;5.546;2024-01-10T14:53:34;1.30;64.10
67141;DHT22;54058;52.010;5.546;2024-01-10T14:56:03;1.30;62.20
67141;DHT22;54058;52.010;5.546;2024-01-10T14:58:28;1.20;64.50
67141;DHT22;54058;52.010;5.546;2024-01-10T15:00:54;1.20;63.30
67141;DHT22;54058;52.010;5.546;2024-01-10T15:03:20;1.20;63.70
67141;DHT22;54058;52.010;5.546;2024-01-10T15:05:47;1.20;64.20
67141;DHT22;54058;52.010;5.546;2024-01-10T15:08:13;1.10;64.80
67141;DHT22;54058;52.010;5.546;2024-01-10T15:10:39;1.10;63.40
67141;DHT22;54058;52.010;5.546;2024-01-10T15:13:09;1.10;63.40
67141;DHT22;54058;52.010;5.546;2024-01-10T15:15:37;1.00;63.50
67141;DHT22;54058;52.010;5.546;2024-01-10T15:18:04;1.00;63.00
67141;DHT22;54058;52.010;5.546;2024-01-10T15:20:30;1.00;60.60
67141;DHT22;54058;52.010;5.546;2024-01-10T15:22:56;0.90;63.10
67141;DHT22;54058;52.010;5.546;2024-01-10T15:25:22;0.90;63.40
67141;DHT22;54058;52.010;5.546;2024-01-10T15:27:50;0.90;62.80
67141;DHT22;54058;52.010;5.546;2024-01-10T15:30:17;0.90;64.30
67141;DHT22;54058;52.010;5.546;2024-01-10T15:32:44;0.90;64.50
67141;DHT22;54058;52.010;5.546;2024-01-10T15:35:09;0.90;65.10
67141;DHT22;54058;52.010;5.546;2024-01-10T15:37:50;0.80;65.80
67141;DHT22;54058;52.010;5.546;2024-01-10T15:40:17;0.80;65.20
67141;DHT22;54058;52.010;5.546;2024-01-10T15:42:42;0.80;66.00
67141;DHT22;54058;52.010;5.546;2024-01-10T15:45:11;0.70;66.30
67141;DHT22;54058;52.010;5.546;2024-01-10T15:47:36;0.70;65.50
67141;DHT22;54058;52.010;5.546;2024-01-10T15:50:03;0.70;66.20